Time;durP1;ratioP1;P1;durP2;ratioP2;P2;SDS_P1;SDS_P2;PMS_P1;PMS_P2;Temp;Humidity;BMP_temperature;BMP_pressure;BME280_temperature;BME280_humidity;BME280_pressure;Samples;Min_cycle;Max_cycle;Signal;HPM_P1;HPM_P2
2023/04/28 00:00:20;;;;;;;;;6.67;6.67;;;;;16.23;81.27;100432.84;4957107;28;45462;-59
2023/04/28 00:02:47;;;;;;;;;7.00;7.00;;;;;16.26;81.87;100441.47;4957595;28;45518;-59
2023/04/28 00:05:13;;;;;;;;;6.67;6.67;;;;;16.27;81.35;100451.13;4957187;28;45462;-59
2023/04/28 00:07:38;;;;;;;;;9.00;8.00;;;;;16.28;80.72;100455.50;4956930;28;45539;-60
2023/04/28 00:10:04;;;;;;;;;6.00;6.00;;;;;16.27;81.16;100444.97;4957651;28;46372;-59
2023/04/28 00:12:29;;;;;;;;;6.00;6.00;;;;;16.26;80.18;100446.75;4957165;28;45376;-58
2023/04/28 00:14:54;;;;;;;;;7.00;7.00;;;;;16.29;79.71;100448.38;4956860;28;52657;-59
2023/04/28 00:17:20;;;;;;;;;5.00;5.00;;;;;16.30;80.73;100447.41;4957247;28;45503;-59
2023/04/28 00:19:45;;;;;;;;;6.00;5.00;;;;;16.30;80.28;100450.06;4957285;28;45476;-60
2023/04/28 00:22:10;;;;;;;;;4.33;4.33;;;;;16.30;80.51;100455.38;4957280;28;45367;-59
2023/04/28 00:24:36;;;;;;;;;8.00;8.00;;;;;16.29;79.96;100451.03;4956984;28;46136;-59
2023/04/28 00:27:02;;;;;;;;;5.00;5.00;;;;;16.30;80.96;100450.06;4956081;28;45416;-58
2023/04/28 00:29:27;;;;;;;;;5.00;5.00;;;;;16.30;81.33;100447.41;4957202;28;45356;-59
2023/04/28 00:31:53;;;;;;;;;5.00;5.00;;;;;16.30;81.34;100445.59;4957039;28;45466;-60
2023/04/28 00:34:18;;;;;;;;;5.67;5.00;;;;;16.27;81.82;100437.84;4957312;28;51582;-60
2023/04/28 00:36:43;;;;;;;;;5.67;5.33;;;;;16.31;82.00;100450.00;4955784;28;45413;-59
2023/04/28 00:39:09;;;;;;;;;5.33;5.33;;;;;16.18;82.22;100427.81;4957256;28;45835;-60
2023/04/28 00:41:34;;;;;;;;;5.33;4.00;;;;;16.32;80.95;100450.84;4956647;28;45361;-58
2023/04/28 00:44:00;;;;;;;;;5.67;4.67;;;;;16.31;81.96;100450.00;4956826;28;45427;-59
2023/04/28 00:46:32;;;;;;;;;6.33;6.00;;;;;16.29;82.12;100441.25;4955351;28;45387;-59
2023/04/28 00:48:58;;;;;;;;;5.00;5.00;;;;;16.31;81.98;100438.53;4957032;28;45602;-60
2023/04/28 00:51:23;;;;;;;;;6.00;4.67;;;;;16.30;81.47;100426.19;4956734;28;45366;-58
2023/04/28 00:53:50;;;;;;;;;5.00;5.00;;;;;16.31;81.24;100434.06;4956441;28;46180;-59
2023/04/28 00:56:15;;;;;;;;;5.67;5.00;;;;;16.25;81.73;100428.28;4956498;28;45517;-59
2023/04/28 00:58:41;;;;;;;;;7.33;5.67;;;;;16.31;82.35;100446.50;4956447;28;45403;-57
2023/04/28 01:01:08;;;;;;;;;5.33;5.33;;;;;16.30;82.88;100442.97;4956679;28;45444;-60
2023/04/28 01:03:36;;;;;;;;;3.33;3.33;;;;;16.29;82.46;100443.06;4955301;28;46218;-60
2023/04/28 01:06:03;;;;;;;;;7.00;5.67;;;;;16.27;82.55;100434.34;4956341;28;45320;-59
2023/04/28 01:08:31;;;;;;;;;3.33;3.33;;;;;16.30;82.36;100447.41;4956386;28;45491;-59
2023/04/28 01:10:56;;;;;;;;;3.67;3.67;;;;;16.28;82.84;100442.22;4955200;28;45468;-60
2023/04/28 01:13:21;;;;;;;;;4.00;4.00;;;;;16.27;82.24;100444.97;4956363;28;46060;-59
2023/04/28 01:15:47;;;;;;;;;5.00;3.33;;;;;16.28;83.11;100444.00;4956415;28;45432;-60
2023/04/28 01:18:14;;;;;;;;;2.00;2.00;;;;;16.27;82.44;100435.19;4955502;28;45475;-59
2023/04/28 01:20:40;;;;;;;;;3.00;3.00;;;;;16.27;82.32;100439.66;4956361;28;45529;-60
2023/04/28 01:23:13;;;;;;;;;3.67;3.67;;;;;16.27;83.08;100432.53;4955971;28;45351;-58
2023/04/28 01:25:39;;;;;;;;;3.00;3.00;;;;;16.26;82.55;100436.16;4956443;28;45439;-59
2023/04/28 01:28:05;;;;;;;;;4.33;4.00;;;;;16.24;83.08;100431.88;4956287;28;45375;-59
2023/04/28 01:30:30;;;;;;;;;4.33;4.33;;;;;16.27;82.93;100443.16;4956250;28;45497;-60
2023/04/28 01:32:56;;;;;;;;;4.00;4.00;;;;;16.28;82.92;100436.03;4955882;28;46236;-60
2023/04/28 01:35:21;;;;;;;;;3.00;3.00;;;;;16.27;83.03;100440.50;4955465;28;46161;-58
2023/04/28 01:37:46;;;;;;;;;5.00;4.00;;;;;16.25;83.04;100436.22;4956246;28;45370;-60
2023/04/28 01:40:12;;;;;;;;;2.67;2.67;;;;;16.26;83.15;100441.47;4955905;28;45484;-59
2023/04/28 01:42:37;;;;;;;;;3.00;3.00;;;;;16.26;83.19;100436.16;4956112;28;46179;-60
2023/04/28 01:45:04;;;;;;;;;5.00;5.00;;;;;16.27;82.78;100443.16;4956107;28;45423;-59
2023/04/28 01:47:30;;;;;;;;;5.33;4.00;;;;;16.27;82.90;100437.84;4956140;28;45515;-58
2023/04/28 01:49:55;;;;;;;;;4.33;4.33;;;;;16.27;83.29;100440.50;4955848;28;45433;-60
2023/04/28 01:52:23;;;;;;;;;3.67;3.67;;;;;16.27;83.12;100439.66;4955542;28;52237;-60
2023/04/28 01:54:48;;;;;;;;;6.00;4.33;;;;;16.28;83.13;100433.38;4955898;28;45510;-60
2023/04/28 01:57:13;;;;;;;;;4.00;4.00;;;;;16.28;83.09;100436.03;4955865;28;45454;-59
2023/04/28 01:59:39;;;;;;;;;4.00;4.00;;;;;16.30;83.09;100436.81;4956047;28;45524;-58
2023/04/28 02:02:05;;;;;;;;;4.00;3.00;;;;;16.27;83.68;100429.03;4954648;28;45590;-60
2023/04/28 02:04:30;;;;;;;;;5.33;4.33;;;;;16.28;83.45;100428.06;4955819;28;45483;-59
2023/04/28 02:06:55;;;;;;;;;4.33;4.33;;;;;16.24;83.47;100427.44;4955859;28;45367;-58
2023/04/28 02:09:21;;;;;;;;;3.00;3.00;;;;;16.25;83.25;100437.06;4955825;28;45418;-59
2023/04/28 02:11:46;;;;;;;;;3.00;3.00;;;;;16.27;83.03;100432.53;4955570;28;45466;-60
2023/04/28 02:14:11;;;;;;;;;4.00;4.00;;;;;16.24;82.97;100434.53;4955539;28;45434;-60
2023/04/28 02:16:36;;;;;;;;;4.67;4.00;;;;;16.26;82.93;100446.75;4955752;28;45346;-60
2023/04/28 02:19:02;;;;;;;;;4.33;4.33;;;;;16.27;83.76;100439.66;4955666;28;45389;-59
2023/04/28 02:21:27;;;;;;;;;5.33;4.33;;;;;16.26;83.65;100441.47;4954261;28;46254;-59
2023/04/28 02:23:52;;;;;;;;;3.33;3.33;;;;;16.24;83.20;100432.72;4955727;28;45392;-60
2023/04/28 02:26:18;;;;;;;;;3.00;3.00;;;;;16.23;83.34;100433.69;4955597;28;45483;-59
2023/04/28 02:28:43;;;;;;;;;4.00;4.00;;;;;16.28;83.64;100444.00;4955813;28;45388;-60
2023/04/28 02:31:10;;;;;;;;;3.00;3.00;;;;;16.27;83.71;100437.84;4957903;28;52296;-60
2023/04/28 02:33:36;;;;;;;;;3.00;3.00;;;;;16.27;83.24;100447.63;4958904;28;45513;-60
2023/04/28 02:36:03;;;;;;;;;4.00;4.00;;;;;16.28;84.10;100451.97;4959322;28;45551;-59
2023/04/28 02:38:29;;;;;;;;;4.00;4.00;;;;;16.24;83.21;100448.66;4958902;28;45478;-59
2023/04/28 02:41:05;;;;;;;;;3.00;3.00;;;;;16.28;83.71;100454.63;4958612;28;45523;-60
2023/04/28 02:43:31;;;;;;;;;3.00;3.00;;;;;16.28;83.22;100451.97;4958611;28;45443;-60
2023/04/28 02:45:57;;;;;;;;;1.67;1.67;;;;;16.24;83.98;100446.00;4958756;28;45470;-58
2023/04/28 02:48:23;;;;;;;;;1.67;1.67;;;;;16.27;84.07;100450.25;4958550;28;45468;-58
2023/04/28 02:50:48;;;;;;;;;1.67;1.67;;;;;16.26;83.40;100443.25;4958421;28;46374;-61
2023/04/28 02:53:13;;;;;;;;;1.33;1.33;;;;;16.24;83.20;100442.50;4958287;28;45498;-59
2023/04/28 02:55:39;;;;;;;;;1.33;1.33;;;;;16.28;83.24;100444.88;4958447;28;45838;-59
2023/04/28 02:58:04;;;;;;;;;2.00;2.00;;;;;16.28;83.07;100439.56;4958273;28;45594;-59
2023/04/28 03:00:30;;;;;;;;;2.00;2.00;;;;;16.27;83.01;100427.22;4958353;28;45474;-58
2023/04/28 03:02:55;;;;;;;;;2.00;1.00;;;;;16.26;83.42;100430.84;4958369;28;45466;-58
2023/04/28 03:05:20;;;;;;;;;1.00;1.00;;;;;16.25;82.91;100415.00;4958366;28;45526;-58
2023/04/28 03:07:46;;;;;;;;;1.00;1.00;;;;;16.28;83.46;100422.78;4958522;28;45366;-58
2023/04/28 03:10:11;;;;;;;;;1.00;1.00;;;;;16.28;83.83;100425.41;4958258;28;46004;-59
2023/04/28 03:12:36;;;;;;;;;1.33;1.33;;;;;16.28;83.58;100420.13;4957979;28;45438;-58
2023/04/28 03:15:02;;;;;;;;;0.67;0.67;;;;;16.28;83.45;100420.13;4957152;28;50038;-60
2023/04/28 03:17:27;;;;;;;;;1.00;1.00;;;;;16.27;83.15;100432.53;4958216;28;45431;-58
2023/04/28 03:19:53;;;;;;;;;1.00;1.00;;;;;16.29;82.54;100435.09;4958110;28;45461;-58
2023/04/28 03:22:18;;;;;;;;;1.33;1.00;;;;;16.30;82.48;100437.66;4958123;28;45522;-59
2023/04/28 03:24:43;;;;;;;;;1.00;1.00;;;;;16.30;83.11;100426.19;4958145;28;45822;-59
2023/04/28 03:27:09;;;;;;;;;1.00;1.00;;;;;16.29;82.82;100414.72;4958110;28;46969;-60
2023/04/28 03:29:34;;;;;;;;;0.33;0.33;;;;;16.30;83.15;100424.38;4957785;28;45431;-59
2023/04/28 03:32:00;;;;;;;;;2.00;2.00;;;;;16.29;83.07;100412.06;4958049;28;45448;-59
2023/04/28 03:34:25;;;;;;;;;1.00;1.00;;;;;16.29;83.13;100421.84;4957513;28;45879;-60
2023/04/28 03:36:51;;;;;;;;;1.00;1.00;;;;;16.29;82.62;100424.50;4957042;28;45335;-60
2023/04/28 03:39:16;;;;;;;;;1.00;1.00;;;;;16.26;83.62;100433.50;4957803;28;45387;-59
2023/04/28 03:41:41;;;;;;;;;2.00;1.00;;;;;16.25;83.24;100433.56;4957046;28;45385;-58
2023/04/28 03:44:07;;;;;;;;;1.00;1.00;;;;;16.25;83.35;100429.13;4957700;28;49071;-58
2023/04/28 03:46:33;;;;;;;;;1.00;1.00;;;;;16.24;82.64;100427.44;4957751;28;45564;-59
2023/04/28 03:49:00;;;;;;;;;1.67;1.67;;;;;16.24;83.03;100415.97;4957693;28;45501;-58
2023/04/28 03:51:26;;;;;;;;;0.00;0.00;;;;;16.25;82.64;100421.16;4957545;28;45474;-60
2023/04/28 03:53:52;;;;;;;;;1.00;1.00;;;;;16.27;82.30;100423.72;4957959;28;45492;-58
2023/04/28 03:56:17;;;;;;;;;3.00;1.00;;;;;16.21;83.07;100424.13;4957470;28;45585;-59
2023/04/28 03:58:42;;;;;;;;;0.00;0.00;;;;;16.25;83.34;100434.41;4957271;28;45510;-58
2023/04/28 04:01:08;;;;;;;;;0.00;0.00;;;;;16.25;82.84;100428.28;4957554;28;45431;-59
2023/04/28 04:03:33;;;;;;;;;0.00;0.00;;;;;16.26;82.60;100437.97;4957655;28;46234;-59
2023/04/28 04:05:58;;;;;;;;;0.00;0.00;;;;;16.27;82.36;100437.00;4957846;28;45550;-60
2023/04/28 04:08:24;;;;;;;;;1.00;1.00;;;;;16.27;81.88;100426.38;4957267;28;45521;-60
2023/04/28 04:10:51;;;;;;;;;0.33;0.33;;;;;16.25;82.53;100437.06;4957328;28;45590;-59
2023/04/28 04:13:16;;;;;;;;;0.67;0.67;;;;;16.25;82.67;100436.22;4957641;28;45407;-58
2023/04/28 04:15:42;;;;;;;;;2.00;1.00;;;;;16.27;81.94;100432.53;4957248;28;45609;-60
2023/04/28 04:18:07;;;;;;;;;0.00;0.00;;;;;16.26;81.68;100433.50;4957391;28;45347;-58
2023/04/28 04:20:32;;;;;;;;;0.00;0.00;;;;;16.25;82.27;100430.91;4956791;28;57675;-59
2023/04/28 04:22:57;;;;;;;;;0.00;0.00;;;;;16.26;81.67;100430.84;4957334;28;45473;-60
2023/04/28 04:25:23;;;;;;;;;0.00;0.00;;;;;16.27;82.42;100431.69;4957496;28;45610;-59
2023/04/28 04:27:48;;;;;;;;;0.00;0.00;;;;;16.26;82.55;100436.16;4957024;28;45359;-59
2023/04/28 04:30:13;;;;;;;;;0.33;0.00;;;;;16.25;81.98;100434.41;4957018;28;45424;-58
2023/04/28 04:32:39;;;;;;;;;0.00;0.00;;;;;16.16;81.84;100421.72;4956766;28;49014;-59
2023/04/28 04:35:04;;;;;;;;;1.33;1.00;;;;;16.25;81.68;100445.03;4957809;28;45399;-59
2023/04/28 04:37:30;;;;;;;;;1.00;1.00;;;;;16.27;82.10;100444.97;4957066;28;45574;-62
2023/04/28 04:39:55;;;;;;;;;1.00;1.00;;;;;16.26;82.39;100444.09;4956930;28;45519;-60
2023/04/28 04:42:20;;;;;;;;;0.33;0.33;;;;;16.27;82.35;100442.31;4956501;28;56790;-60
2023/04/28 04:44:45;;;;;;;;;1.00;1.00;;;;;16.12;81.81;100423.72;4956837;28;49496;-59
2023/04/28 04:47:11;;;;;;;;;0.00;0.00;;;;;16.24;81.83;100419.47;4956742;28;46146;-60
2023/04/28 04:49:36;;;;;;;;;1.00;1.00;;;;;16.26;82.57;100438.81;4956687;28;45475;-60
2023/04/28 04:52:02;;;;;;;;;0.00;0.00;;;;;16.25;81.84;100444.19;4956963;28;45538;-58
2023/04/28 04:54:29;;;;;;;;;1.67;1.67;;;;;16.25;82.39;100441.53;4955557;28;45459;-60
2023/04/28 04:56:54;;;;;;;;;0.00;0.00;;;;;16.23;82.14;100444.31;4956435;28;46214;-59
2023/04/28 04:59:20;;;;;;;;;1.00;1.00;;;;;16.24;81.56;100446.00;4956610;28;45422;-59
2023/04/28 05:01:45;;;;;;;;;1.00;1.00;;;;;16.26;81.89;100453.88;4956624;28;45468;-59
2023/04/28 05:04:10;;;;;;;;;0.00;0.00;;;;;16.24;82.03;100451.31;4956266;28;53651;-59
2023/04/28 05:06:36;;;;;;;;;1.00;1.00;;;;;16.25;82.31;100450.34;4956310;28;46141;-60
2023/04/28 05:09:01;;;;;;;;;0.00;0.00;;;;;16.25;81.29;100454.81;4956494;28;45474;-60
2023/04/28 05:11:26;;;;;;;;;1.67;1.67;;;;;16.21;82.30;100445.34;4956488;28;45311;-59
2023/04/28 05:13:52;;;;;;;;;1.00;1.00;;;;;16.24;81.98;100456.63;4956486;28;45692;-60
2023/04/28 05:16:17;;;;;;;;;1.00;1.00;;;;;16.25;82.10;100466.28;4956350;28;46238;-59
2023/04/28 05:18:42;;;;;;;;;1.00;1.00;;;;;16.26;81.86;100469.81;4956239;28;45485;-59
2023/04/28 05:21:10;;;;;;;;;1.00;1.00;;;;;16.25;81.51;100466.28;4956575;28;45385;-59
2023/04/28 05:23:35;;;;;;;;;1.00;1.00;;;;;16.25;80.92;100460.13;4956310;28;45522;-58
2023/04/28 05:26:02;;;;;;;;;1.00;1.00;;;;;16.27;81.74;100474.16;4956069;28;45422;-60
2023/04/28 05:28:27;;;;;;;;;2.00;1.00;;;;;16.27;82.15;100474.16;4956368;28;45537;-58
2023/04/28 05:30:53;;;;;;;;;1.00;1.00;;;;;16.27;81.60;100472.34;4955812;28;45442;-59
2023/04/28 05:33:18;;;;;;;;;1.00;1.00;;;;;16.27;81.49;100474.16;4956177;28;45478;-59
2023/04/28 05:35:43;;;;;;;;;1.00;1.00;;;;;16.27;81.82;100460.88;4956742;28;45972;-59
2023/04/28 05:38:12;;;;;;;;;1.00;1.00;;;;;16.27;81.63;100469.69;4956024;28;45510;-59
2023/04/28 05:40:37;;;;;;;;;1.00;1.00;;;;;16.28;81.56;100463.44;4956336;28;45532;-58
2023/04/28 05:43:02;;;;;;;;;1.67;1.67;;;;;16.24;81.29;100469.88;4954805;28;45434;-60
2023/04/28 05:45:28;;;;;;;;;1.00;1.00;;;;;16.29;81.17;100461.66;4956002;28;47344;-59
2023/04/28 05:47:54;;;;;;;;;2.33;1.33;;;;;16.30;81.18;100461.53;4955843;28;45487;-58
2023/04/28 05:50:20;;;;;;;;;1.33;1.33;;;;;16.26;81.38;100462.69;4956358;28;45299;-59
2023/04/28 05:52:46;;;;;;;;;1.00;1.00;;;;;16.29;81.94;100461.66;4956060;28;45422;-58
2023/04/28 05:55:11;;;;;;;;;1.33;1.33;;;;;16.28;81.66;100475.84;4955596;28;47220;-58
2023/04/28 05:57:36;;;;;;;;;1.00;1.00;;;;;16.25;81.66;100468.06;4954620;28;45439;-59
2023/04/28 06:00:02;;;;;;;;;2.00;1.00;;;;;16.26;81.37;100477.75;4955757;28;45510;-58
2023/04/28 06:02:27;;;;;;;;;1.00;1.00;;;;;16.26;81.25;100480.41;4955899;28;45471;-59
2023/04/28 06:04:54;;;;;;;;;1.33;1.33;;;;;16.28;81.54;100475.84;4956489;28;45459;-58
2023/04/28 06:07:20;;;;;;;;;0.00;0.00;;;;;16.23;81.67;100464.69;4959395;28;45402;-60
2023/04/28 06:09:45;;;;;;;;;1.00;1.00;;;;;16.26;81.56;100475.97;4959619;28;45462;-59
2023/04/28 06:12:11;;;;;;;;;1.00;1.00;;;;;16.30;81.63;100471.31;4958727;28;45644;-59
2023/04/28 06:14:36;;;;;;;;;1.00;1.00;;;;;16.31;81.34;100475.69;4959031;28;46127;-60
2023/04/28 06:17:02;;;;;;;;;1.00;1.00;;;;;16.32;81.63;100477.38;4959075;28;45449;-59
2023/04/28 06:19:28;;;;;;;;;2.33;2.33;;;;;16.28;81.55;100476.72;4958861;28;45530;-59
2023/04/28 06:21:53;;;;;;;;;1.00;1.00;;;;;16.30;81.82;100482.78;4959267;28;45463;-58
2023/04/28 06:24:18;;;;;;;;;1.67;1.67;;;;;16.31;81.96;100488.94;4958512;28;51889;-58
2023/04/28 06:26:44;;;;;;;;;1.33;1.33;;;;;16.30;81.70;100482.78;4958930;28;45372;-58
2023/04/28 06:29:10;;;;;;;;;3.67;3.67;;;;;16.32;81.66;100486.19;4958838;28;45331;-59
2023/04/28 06:31:35;;;;;;;;;1.00;1.00;;;;;16.30;81.29;100487.22;4958939;28;45542;-59
2023/04/28 06:34:00;;;;;;;;;2.00;2.00;;;;;16.34;81.22;100481.66;4958769;28;45443;-60
2023/04/28 06:36:27;;;;;;;;;1.00;1.00;;;;;16.33;81.57;100479.94;4959211;28;45371;-60
2023/04/28 06:38:52;;;;;;;;;1.67;1.67;;;;;16.30;81.77;100477.47;4958489;28;45430;-58
2023/04/28 06:41:17;;;;;;;;;1.00;1.00;;;;;16.30;81.49;100484.56;4958294;28;45415;-58
2023/04/28 06:43:43;;;;;;;;;1.00;1.00;;;;;16.35;81.70;100487.81;4958501;28;46135;-59
2023/04/28 06:46:10;;;;;;;;;2.00;2.00;;;;;16.37;81.40;100485.91;4958328;28;45489;-60
2023/04/28 06:48:35;;;;;;;;;3.00;3.00;;;;;16.39;81.29;100488.47;4958649;28;45487;-61
2023/04/28 06:51:00;;;;;;;;;2.00;1.00;;;;;16.39;81.01;100484.03;4958572;28;45352;-60
2023/04/28 06:53:26;;;;;;;;;1.67;1.67;;;;;16.38;80.80;100492.06;4958217;28;46068;-61
2023/04/28 06:55:51;;;;;;;;;2.00;2.00;;;;;16.38;80.84;100494.72;4957043;28;50650;-59
2023/04/28 06:58:16;;;;;;;;;4.33;4.33;;;;;16.40;81.06;100504.31;4958203;28;45295;-60
2023/04/28 07:00:42;;;;;;;;;10.33;9.00;;;;;16.43;80.99;100506.75;4958491;28;45487;-58
2023/04/28 07:03:07;;;;;;;;;10.00;9.00;;;;;16.42;81.65;100499.75;4958370;28;46547;-58
2023/04/28 07:05:33;;;;;;;;;5.67;5.67;;;;;16.47;80.74;100505.66;4957216;28;45407;-60
2023/04/28 07:07:58;;;;;;;;;2.67;2.67;;;;;16.49;81.03;100517.00;4958123;28;45498;-59
2023/04/28 07:10:23;;;;;;;;;3.67;3.67;;;;;16.49;80.53;100509.03;4958029;28;45521;-58
2023/04/28 07:12:51;;;;;;;;;2.67;2.67;;;;;16.52;80.69;100508.88;4957673;28;52064;-58
2023/04/28 07:15:16;;;;;;;;;4.67;2.00;;;;;16.54;81.00;100511.41;4958169;28;45533;-59
2023/04/28 07:17:42;;;;;;;;;3.00;2.00;;;;;16.54;80.82;100512.25;4956991;28;45451;-60
2023/04/28 07:20:07;;;;;;;;;2.00;1.00;;;;;16.53;80.71;100507.91;4958045;28;45583;-60
2023/04/28 07:22:33;;;;;;;;;3.00;2.67;;;;;16.57;80.25;100517.38;4957722;28;46238;-60
2023/04/28 07:24:58;;;;;;;;;2.33;2.33;;;;;16.59;80.78;100517.31;4957982;28;45501;-60
2023/04/28 07:27:24;;;;;;;;;3.00;3.00;;;;;16.60;80.37;100515.50;4958124;28;45483;-59
2023/04/28 07:29:49;;;;;;;;;2.00;2.00;;;;;16.60;80.08;100519.00;4957940;28;45693;-60
2023/04/28 07:32:14;;;;;;;;;2.00;2.00;;;;;16.59;80.65;100516.44;4957651;28;45476;-59
2023/04/28 07:34:40;;;;;;;;;3.00;3.00;;;;;16.59;79.97;100519.09;4958764;28;45440;-59
2023/04/28 07:37:05;;;;;;;;;2.00;2.00;;;;;16.60;80.36;100516.34;4958059;28;45424;-58
2023/04/28 07:39:32;;;;;;;;;1.00;1.00;;;;;16.60;79.60;100521.66;4957957;28;45399;-59
2023/04/28 07:41:58;;;;;;;;;4.33;3.00;;;;;16.60;80.48;100524.31;4957771;28;45399;-60
2023/04/28 07:44:24;;;;;;;;;2.00;2.00;;;;;16.60;80.07;100523.47;4957681;28;45412;-60
2023/04/28 07:46:49;;;;;;;;;1.67;1.67;;;;;16.63;79.67;100515.31;4957700;28;45344;-59
2023/04/28 07:49:15;;;;;;;;;3.00;3.00;;;;;16.67;79.93;100530.97;4957792;28;45510;-60
2023/04/28 07:51:40;;;;;;;;;2.00;2.00;;;;;16.67;79.57;100530.09;4956271;28;45490;-61
2023/04/28 07:54:06;;;;;;;;;2.00;2.00;;;;;16.71;79.92;100537.81;4957458;28;45430;-60
2023/04/28 07:56:31;;;;;;;;;2.00;2.00;;;;;16.74;79.83;100536.75;4957422;28;45395;-59
2023/04/28 07:58:57;;;;;;;;;1.00;1.00;;;;;16.75;79.17;100531.34;4957539;28;45505;-60
2023/04/28 08:01:22;;;;;;;;;1.00;1.00;;;;;16.76;79.25;100535.72;4957552;28;45466;-60
2023/04/28 08:03:48;;;;;;;;;3.33;2.00;;;;;16.79;79.22;100532.03;4957271;28;45437;-59
2023/04/28 08:06:13;;;;;;;;;1.67;1.67;;;;;16.83;79.61;100535.34;4957310;28;45696;-60
2023/04/28 08:08:39;;;;;;;;;2.33;2.33;;;;;16.84;79.01;100535.25;4956937;28;45489;-60
2023/04/28 08:11:05;;;;;;;;;1.67;1.67;;;;;16.87;79.29;100534.19;4957164;28;45503;-60
2023/04/28 08:13:31;;;;;;;;;1.00;1.00;;;;;16.89;78.79;100535.81;4957417;28;45379;-60
2023/04/28 08:15:59;;;;;;;;;1.00;1.00;;;;;16.93;78.67;100532.03;4957269;28;45518;-60
2023/04/28 08:18:24;;;;;;;;;2.00;2.00;;;;;16.96;78.44;100539.81;4957000;28;45465;-60
2023/04/28 08:20:49;;;;;;;;;2.33;2.33;;;;;16.98;78.33;100537.91;4956874;28;45372;-61
2023/04/28 08:23:15;;;;;;;;;2.33;2.33;;;;;17.02;78.68;100538.56;4956637;28;60748;-58
2023/04/28 08:25:40;;;;;;;;;3.00;1.00;;;;;17.06;78.07;100544.53;4957080;28;45484;-59
2023/04/28 08:28:07;;;;;;;;;3.00;2.00;;;;;17.07;77.72;100540.94;4956958;28;45680;-58
2023/04/28 08:30:33;;;;;;;;;1.00;1.00;;;;;17.07;78.45;100540.94;4956950;28;45461;-59
2023/04/28 08:32:58;;;;;;;;;2.00;2.00;;;;;17.08;78.36;100535.50;4956562;28;45423;-59
2023/04/28 08:35:23;;;;;;;;;1.00;1.00;;;;;17.13;77.62;100545.84;4957381;28;48467;-58
2023/04/28 08:37:50;;;;;;;;;15.33;13.67;;;;;17.14;77.57;100543.09;4956542;28;45565;-59
2023/04/28 08:40:16;;;;;;;;;3.00;3.00;;;;;17.14;77.42;100543.09;4956719;28;45546;-60
2023/04/28 08:42:43;;;;;;;;;1.67;1.67;;;;;17.14;77.10;100537.78;4956842;28;45411;-60
2023/04/28 08:45:12;;;;;;;;;3.00;3.00;;;;;17.18;76.99;100541.09;4956559;28;45422;-59
2023/04/28 08:47:40;;;;;;;;;3.67;3.00;;;;;17.19;77.10;100543.66;4956573;28;45422;-58
2023/04/28 08:50:08;;;;;;;;;0.33;0.33;;;;;17.21;76.68;100549.72;4955185;28;45539;-58
2023/04/28 08:52:35;;;;;;;;;3.00;3.00;;;;;17.22;75.54;100558.53;4956428;28;45352;-58
2023/04/28 08:55:04;;;;;;;;;2.00;2.00;;;;;17.21;76.19;100551.53;4956495;28;45396;-60
2023/04/28 08:57:43;;;;;;;;;2.00;2.00;;;;;17.21;76.14;100551.53;4956621;28;45537;-60
2023/04/28 09:00:09;;;;;;;;;1.00;1.00;;;;;17.20;76.03;100549.84;4956343;28;46210;-60
2023/04/28 09:02:36;;;;;;;;;3.67;2.00;;;;;17.23;76.28;100554.94;4956543;28;45380;-60
2023/04/28 09:05:06;;;;;;;;;2.00;1.00;;;;;17.25;75.90;100552.19;4956517;28;45538;-59
2023/04/28 09:07:31;;;;;;;;;2.00;2.00;;;;;17.27;75.84;100555.59;4956550;28;45332;-63
2023/04/28 09:10:16;;;;;;;;;2.00;2.00;;;;;17.27;75.51;100547.63;4955736;28;54469;-60
2023/04/28 09:12:41;;;;;;;;;6.33;6.33;;;;;17.30;75.49;100560.72;4956237;28;45448;-60
2023/04/28 09:15:08;;;;;;;;;4.67;4.67;;;;;17.30;75.44;100556.28;4956052;28;57784;-59
2023/04/28 09:17:47;;;;;;;;;2.00;2.00;;;;;17.31;75.31;100542.03;4956322;28;45566;-59
2023/04/28 09:20:25;;;;;;;;;1.33;1.33;;;;;17.29;75.25;100551.03;4954998;28;45468;-58
2023/04/28 09:22:52;;;;;;;;;1.00;1.00;;;;;17.34;75.26;100555.09;4956102;28;45535;-60
2023/04/28 09:25:20;;;;;;;;;1.00;1.00;;;;;17.37;75.02;100557.56;4956485;28;45399;-59
2023/04/28 09:27:45;;;;;;;;;2.33;2.33;;;;;17.34;74.93;100549.78;4956271;28;45474;-59
2023/04/28 09:30:11;;;;;;;;;1.00;1.00;;;;;17.39;74.34;100563.66;4956030;28;45467;-59
2023/04/28 09:32:37;;;;;;;;;0.67;0.33;;;;;17.39;74.04;100566.31;4955902;28;45537;-60
2023/04/28 09:35:03;;;;;;;;;3.00;2.67;;;;;17.40;74.06;100560.03;4956713;28;45471;-60
2023/04/28 09:37:30;;;;;;;;;1.00;1.00;;;;;17.42;74.00;100566.09;4955947;28;45494;-58
2023/04/28 09:40:03;;;;;;;;;1.00;1.00;;;;;17.42;74.14;100560.78;4955125;28;45451;-59
2023/04/28 09:42:42;;;;;;;;;3.67;3.67;;;;;17.38;73.37;100564.59;4955916;28;45459;-60
2023/04/28 09:45:12;;;;;;;;;1.00;1.00;;;;;17.37;73.57;100562.88;4955919;28;45480;-58
2023/04/28 09:47:42;;;;;;;;;3.00;3.00;;;;;17.37;73.67;100562.03;4956149;28;45392;-60
2023/04/28 09:50:13;;;;;;;;;1.67;1.67;;;;;17.35;73.91;100559.47;4955627;28;45490;-59
2023/04/28 09:52:40;;;;;;;;;4.67;2.67;;;;;17.38;73.60;100561.06;4955976;28;45452;-60
2023/04/28 09:55:09;;;;;;;;;3.00;3.00;;;;;17.39;73.76;100566.31;4955904;28;45479;-58
2023/04/28 09:57:35;;;;;;;;;1.00;1.00;;;;;17.41;73.65;100569.72;4954857;28;45350;-58
2023/04/28 10:00:05;;;;;;;;;4.33;3.33;;;;;17.44;73.20;100571.34;4954347;28;45472;-60
2023/04/28 10:02:33;;;;;;;;;8.67;8.67;;;;;17.50;73.22;100570.94;4955854;28;45501;-61
2023/04/28 10:04:59;;;;;;;;;5.00;5.00;;;;;17.51;73.00;100567.31;4955610;28;45344;-60
2023/04/28 10:07:26;;;;;;;;;28.00;26.67;;;;;17.57;72.83;100585.53;4955771;28;45387;-60
2023/04/28 10:09:52;;;;;;;;;7.00;7.00;;;;;17.60;72.25;100579.19;4955573;28;45667;-60
2023/04/28 10:12:19;;;;;;;;;15.67;15.67;;;;;17.62;72.64;100574.59;4955260;28;45483;-58
2023/04/28 10:14:48;;;;;;;;;3.00;3.00;;;;;17.65;72.41;100571.72;4955819;28;45431;-59
2023/04/28 10:17:14;;;;;;;;;3.67;3.67;;;;;17.69;72.62;100573.25;4955644;28;45547;-59
2023/04/28 10:19:41;;;;;;;;;3.00;3.00;;;;;17.73;71.85;100573.88;4955380;28;45477;-60
2023/04/28 10:22:34;;;;;;;;;2.00;2.00;;;;;17.76;71.61;100576.34;4955379;28;45514;-60
2023/04/28 10:25:22;;;;;;;;;1.00;1.00;;;;;17.77;71.00;100584.22;4943687;28;45523;-59
2023/04/28 10:27:49;;;;;;;;;2.00;1.00;;;;;17.76;70.03;100579.88;4955386;28;45485;-60
2023/04/28 10:30:20;;;;;;;;;1.67;1.67;;;;;17.79;70.21;100587.69;4955387;28;45512;-60
2023/04/28 10:32:46;;;;;;;;;1.33;1.33;;;;;17.75;70.39;100578.16;4954980;28;45505;-60
2023/04/28 10:35:21;;;;;;;;;2.00;2.00;;;;;17.80;69.59;100584.06;4956185;28;45538;-60
2023/04/28 10:38:15;;;;;;;;;3.00;3.00;;;;;17.81;69.53;100584.91;4953912;28;45447;-60
2023/04/28 10:40:48;;;;;;;;;2.00;1.00;;;;;17.79;68.79;100579.69;4954057;28;46330;-60
2023/04/28 10:43:31;;;;;;;;;1.00;1.00;;;;;17.81;68.40;100583.13;4954971;28;45332;-59
2023/04/28 10:46:00;;;;;;;;;1.67;1.67;;;;;17.83;68.79;100578.53;4955415;28;45439;-59
2023/04/28 10:48:25;;;;;;;;;2.67;2.00;;;;;17.87;69.27;100582.72;4954220;28;45479;-60
2023/04/28 10:51:02;;;;;;;;;2.00;2.00;;;;;17.91;68.81;100578.03;4954789;28;45368;-59
2023/04/28 10:53:43;;;;;;;;;0.00;0.00;;;;;17.95;68.07;100578.69;4958151;28;45482;-59
2023/04/28 10:56:25;;;;;;;;;1.00;1.00;;;;;17.98;66.92;100571.34;4958308;28;45497;-59
2023/04/28 10:58:58;;;;;;;;;2.00;2.00;;;;;18.03;66.83;100571.06;4945047;28;45608;-59
2023/04/28 11:01:24;;;;;;;;;3.00;2.00;;;;;18.07;67.64;100572.53;4956715;28;45434;-58
2023/04/28 11:03:58;;;;;;;;;2.00;2.00;;;;;18.06;67.25;100578.84;4957984;28;45451;-59
2023/04/28 11:06:27;;;;;;;;;2.00;2.00;;;;;18.06;67.35;100584.16;4958436;28;45509;-59
2023/04/28 11:08:55;;;;;;;;;0.67;0.67;;;;;18.06;67.44;100586.81;4958187;28;45584;-59
2023/04/28 11:11:26;;;;;;;;;2.33;2.33;;;;;18.04;67.74;100578.91;4957647;28;46203;-59
2023/04/28 11:14:17;;;;;;;;;4.00;2.67;;;;;18.06;67.98;100582.34;4958064;28;45457;-58
2023/04/28 11:16:54;;;;;;;;;1.00;1.00;;;;;18.07;68.19;100573.38;4958153;28;45646;-60
2023/04/28 11:19:22;;;;;;;;;1.33;1.33;;;;;18.09;68.17;100575.97;4958024;28;45497;-60
2023/04/28 11:21:48;;;;;;;;;2.00;2.00;;;;;18.09;68.41;100579.47;4957796;28;45506;-59